createdAt,value
2022-10-25T00:00:59.929Z,94.16
2022-10-25T00:03:27.094Z,93.97
2022-10-25T00:05:54.347Z,95.17
2022-10-25T00:08:21.212Z,94.02
2022-10-25T00:10:48.776Z,93.68
2022-10-25T00:13:15.640Z,94.94
2022-10-25T00:15:43.593Z,94.59
2022-10-25T00:18:11.065Z,94.25
2022-10-25T00:20:38.469Z,93.78
2022-10-25T00:23:05.329Z,94.56
2022-10-25T00:25:32.760Z,92.61
2022-10-25T00:27:59.640Z,92.95
2022-10-25T00:30:27.220Z,93.11
2022-10-25T00:32:54.932Z,92.65
2022-10-25T00:35:22.075Z,94.25
2022-10-25T00:37:49.334Z,93.31
2022-10-25T00:40:16.467Z,95.90
2022-10-25T00:42:43.514Z,95.11
2022-10-25T00:45:28.351Z,94.47
2022-10-25T00:48:02.022Z,94.71
2022-10-25T00:50:34.920Z,95.94
2022-10-25T00:53:08.662Z,96.09
2022-10-25T00:55:38.853Z,97.33
2022-10-25T00:58:11.508Z,98.22
2022-10-25T01:00:38.917Z,97.15
2022-10-25T01:03:06.298Z,96.91
2022-10-25T01:05:34.992Z,95.70
2022-10-25T01:08:02.319Z,97.96
2022-10-25T01:10:29.753Z,95.33
2022-10-25T01:12:56.975Z,95.91
2022-10-25T01:15:33.820Z,95.04
2022-10-25T01:18:08.396Z,95.98
2022-10-25T01:20:48.985Z,96.90
2022-10-25T01:24:06.545Z,96.73
2022-10-25T01:26:54.333Z,94.94
2022-10-25T01:29:21.111Z,96.51
2022-10-25T01:31:57.518Z,95.45
2022-10-25T01:34:33.174Z,95.21
2022-10-25T01:37:18.413Z,95.73
2022-10-25T01:40:25.730Z,93.60
2022-10-25T01:43:22.430Z,94.58
2022-10-25T01:46:03.758Z,93.46
2022-10-25T01:48:34.953Z,94.20
2022-10-25T01:51:10.715Z,94.04
2022-10-25T01:53:51.574Z,94.17
2022-10-25T01:56:30.393Z,95.18
2022-10-25T01:59:30.787Z,94.49
2022-10-25T02:01:58.197Z,98.87
2022-10-25T02:04:50.510Z,98.36
2022-10-25T02:07:31.303Z,98.25
2022-10-25T02:10:12.981Z,97.05
2022-10-25T02:12:53.258Z,96.43
2022-10-25T02:15:39.495Z,96.91
2022-10-25T02:18:13.500Z,97.89
2022-10-25T02:20:46.613Z,96.73
2022-10-25T02:23:18.526Z,96.85
2022-10-25T02:25:45.883Z,95.91
2022-10-25T02:28:15.976Z,96.21
2022-10-25T02:30:44.951Z,96.34
2022-10-25T02:33:12.507Z,96.46
2022-10-25T02:35:39.964Z,98.31
2022-10-25T02:38:07.316Z,100.00
2022-10-25T02:40:35.053Z,100.00
2022-10-25T02:43:02.458Z,100.00
2022-10-25T02:45:29.851Z,100.00
2022-10-25T02:47:56.741Z,100.00
2022-10-25T02:50:23.956Z,100.00
2022-10-25T02:52:51.149Z,100.00
2022-10-25T02:55:18.305Z,100.00
2022-10-25T02:57:45.182Z,100.00
2022-10-25T03:02:45.635Z,100.00
2022-10-25T03:05:12.756Z,100.00
2022-10-25T03:07:40.611Z,100.00
2022-10-25T03:10:08.034Z,100.00
2022-10-25T03:12:35.249Z,100.00
2022-10-25T03:15:02.621Z,100.00
2022-10-25T03:17:29.877Z,100.00
2022-10-25T03:19:56.728Z,100.00
2022-10-25T03:22:23.697Z,100.00
2022-10-25T03:24:50.614Z,100.00
2022-10-25T03:27:17.984Z,100.00
2022-10-25T03:29:44.904Z,100.00
2022-10-25T03:32:11.860Z,100.00
2022-10-25T03:34:38.825Z,100.00
2022-10-25T03:37:05.760Z,100.00
2022-10-25T03:39:32.744Z,100.00
2022-10-25T03:41:59.689Z,100.00
2022-10-25T03:44:26.648Z,100.00
2022-10-25T03:46:53.643Z,100.00
2022-10-25T03:49:20.626Z,100.00
2022-10-25T03:51:49.166Z,100.00
2022-10-25T03:54:18.229Z,100.00
2022-10-25T03:56:45.193Z,100.00
2022-10-25T03:59:12.112Z,100.00
2022-10-25T04:01:39.142Z,100.00
2022-10-25T04:04:06.169Z,100.00
2022-10-25T04:06:33.139Z,100.00
2022-10-25T04:09:00.169Z,100.00
2022-10-25T04:11:27.123Z,100.00
2022-10-25T04:13:54.074Z,100.00
2022-10-25T04:16:21.000Z,100.00
2022-10-25T04:18:48.025Z,100.00
2022-10-25T04:21:14.978Z,100.00
2022-10-25T04:23:42.338Z,100.00
2022-10-25T04:26:09.448Z,100.00
2022-10-25T04:28:36.356Z,100.00
2022-10-25T04:31:03.792Z,100.00
2022-10-25T04:33:30.764Z,100.00
2022-10-25T04:35:58.142Z,100.00
2022-10-25T04:38:25.725Z,100.00
2022-10-25T04:41:00.117Z,100.00
2022-10-25T04:43:28.761Z,100.00
2022-10-25T04:45:55.997Z,100.00
2022-10-25T04:48:22.988Z,100.00
2022-10-25T04:50:49.835Z,100.00
2022-10-25T04:53:16.861Z,100.00
2022-10-25T04:55:43.923Z,100.00
2022-10-25T04:58:10.903Z,100.00
2022-10-25T05:00:37.847Z,100.00
2022-10-25T05:03:07.256Z,100.00
2022-10-25T05:05:36.318Z,100.00
2022-10-25T05:08:03.651Z,100.00
2022-10-25T05:10:30.819Z,100.00
2022-10-25T05:12:57.749Z,100.00
2022-10-25T05:15:24.962Z,100.00
2022-10-25T05:17:51.845Z,100.00
2022-10-25T05:20:19.235Z,100.00
2022-10-25T05:22:46.493Z,100.00
2022-10-25T05:25:13.952Z,100.00
2022-10-25T05:27:41.061Z,100.00
2022-10-25T05:30:08.975Z,100.00
2022-10-25T05:32:35.915Z,100.00
2022-10-25T05:35:04.272Z,100.00
2022-10-25T05:37:31.255Z,100.00
2022-10-25T05:39:58.743Z,100.00
2022-10-25T05:42:28.107Z,100.00
2022-10-25T05:44:55.509Z,100.00
2022-10-25T05:47:22.462Z,100.00
2022-10-25T05:49:49.578Z,100.00
2022-10-25T05:52:16.699Z,100.00
2022-10-25T05:54:44.061Z,100.00
2022-10-25T05:57:10.938Z,100.00
2022-10-25T05:59:38.154Z,100.00
2022-10-25T06:02:05.431Z,100.00
2022-10-25T06:04:32.604Z,100.00
2022-10-25T06:06:59.493Z,100.00
2022-10-25T06:09:26.754Z,100.00
2022-10-25T06:11:53.729Z,100.00
2022-10-25T06:14:20.812Z,100.00
2022-10-25T06:16:47.801Z,100.00
2022-10-25T06:19:14.730Z,100.00
2022-10-25T06:21:41.659Z,100.00
2022-10-25T06:24:09.323Z,100.00
2022-10-25T06:26:36.310Z,100.00
2022-10-25T06:29:04.871Z,100.00
2022-10-25T06:31:33.144Z,100.00
2022-10-25T06:34:01.225Z,100.00
2022-10-25T06:36:28.952Z,100.00
2022-10-25T06:38:55.933Z,100.00
2022-10-25T06:41:28.165Z,100.00
2022-10-25T06:43:55.843Z,100.00
2022-10-25T06:46:29.488Z,98.39
2022-10-25T06:48:57.788Z,99.70
2022-10-25T06:51:26.408Z,97.27
2022-10-25T06:53:55.158Z,97.27
2022-10-25T06:56:22.566Z,98.08
2022-10-25T06:58:49.497Z,97.63
2022-10-25T07:01:19.018Z,97.11
2022-10-25T07:03:46.572Z,96.63
2022-10-25T07:06:16.020Z,95.03
2022-10-25T07:08:45.175Z,93.77
2022-10-25T07:11:20.891Z,92.53
2022-10-25T07:13:47.896Z,92.17
2022-10-25T07:16:18.191Z,94.04
2022-10-25T07:18:45.885Z,93.23
2022-10-25T07:21:23.174Z,90.88
2022-10-25T07:23:51.310Z,89.30
2022-10-25T07:26:24.929Z,89.20
2022-10-25T07:28:53.761Z,87.96
2022-10-25T07:31:32.658Z,86.35
2022-10-25T07:34:02.505Z,86.46
2022-10-25T07:36:30.282Z,85.88
2022-10-25T07:38:57.545Z,86.10
2022-10-25T07:41:25.972Z,86.76
2022-10-25T07:43:52.838Z,86.93
2022-10-25T07:46:19.828Z,85.30
2022-10-25T07:48:46.802Z,85.06
2022-10-25T07:51:15.948Z,83.67
2022-10-25T07:53:43.388Z,83.51
2022-10-25T07:56:17.453Z,83.21
2022-10-25T07:58:47.678Z,81.98
2022-10-25T08:01:19.877Z,81.84
2022-10-25T08:03:46.921Z,81.03
2022-10-25T08:06:13.967Z,78.77
2022-10-25T08:08:41.054Z,78.25
2022-10-25T08:11:08.293Z,79.77
2022-10-25T08:13:37.651Z,81.05
2022-10-25T08:16:05.888Z,81.13
2022-10-25T08:18:34.187Z,80.37
2022-10-25T08:21:03.824Z,80.26
2022-10-25T08:23:32.778Z,79.39
2022-10-25T08:26:01.282Z,78.32
2022-10-25T08:28:31.653Z,77.60
2022-10-25T08:31:01.444Z,77.30
2022-10-25T08:33:29.404Z,76.73
2022-10-25T08:35:57.053Z,75.75
2022-10-25T08:38:24.382Z,76.51
2022-10-25T08:41:02.247Z,75.44
2022-10-25T08:43:57.015Z,74.70
2022-10-25T08:46:27.945Z,73.82
2022-10-25T08:49:33.522Z,73.09
2022-10-25T08:52:02.274Z,73.19
2022-10-25T08:54:43.063Z,73.08
2022-10-25T08:57:24.713Z,71.71
2022-10-25T08:59:58.271Z,71.18
2022-10-25T09:02:34.048Z,70.75
2022-10-25T09:05:01.391Z,70.34
2022-10-25T09:07:36.358Z,69.38
2022-10-25T09:10:05.636Z,69.37
2022-10-25T09:13:10.597Z,67.74
2022-10-25T09:16:18.044Z,68.17
2022-10-25T09:18:54.718Z,69.29
2022-10-25T09:21:39.037Z,69.25
2022-10-25T09:24:09.504Z,69.10
2022-10-25T09:26:42.747Z,68.61
2022-10-25T09:29:24.999Z,67.76
2022-10-25T09:31:57.079Z,68.18
2022-10-25T09:34:26.973Z,68.02
2022-10-25T09:37:18.407Z,67.04
2022-10-25T09:39:53.643Z,66.63
2022-10-25T09:42:27.938Z,64.39
2022-10-25T09:45:00.775Z,64.31
2022-10-25T09:47:43.885Z,62.00
2022-10-25T09:50:30.435Z,60.49
2022-10-25T09:53:17.568Z,61.39
2022-10-25T09:56:01.717Z,62.36
2022-10-25T09:58:31.723Z,61.36
2022-10-25T10:01:02.517Z,62.05
2022-10-25T10:03:33.059Z,61.45
2022-10-25T10:06:05.116Z,61.53
2022-10-25T10:08:35.552Z,61.08
2022-10-25T10:11:05.000Z,61.64
2022-10-25T10:13:53.042Z,60.54
2022-10-25T10:16:35.623Z,60.66
2022-10-25T10:19:27.519Z,60.05
2022-10-25T10:21:59.066Z,60.83
2022-10-25T10:24:34.504Z,58.48
2022-10-25T10:27:23.991Z,59.63
2022-10-25T10:30:08.764Z,58.03
2022-10-25T10:35:32.806Z,58.39
2022-10-25T10:38:22.921Z,58.09
2022-10-25T10:40:52.602Z,57.95
2022-10-25T10:43:32.392Z,57.78
2022-10-25T10:46:12.192Z,56.55
2022-10-25T10:48:43.300Z,56.89
2022-10-25T10:54:31.658Z,55.59
2022-10-25T10:57:05.332Z,55.81
2022-10-25T10:59:35.144Z,55.31
2022-10-25T11:02:32.612Z,53.80
2022-10-25T11:04:59.830Z,52.96
2022-10-25T11:07:35.806Z,53.52
2022-10-25T11:10:17.738Z,52.50
2022-10-25T11:12:45.405Z,52.52
2022-10-25T11:15:16.390Z,51.84
2022-10-25T11:17:55.703Z,51.16
2022-10-25T11:20:31.140Z,49.91
2022-10-25T11:23:13.899Z,50.03
2022-10-25T11:25:59.270Z,48.33
2022-10-25T11:28:46.834Z,47.32
2022-10-25T11:31:32.229Z,47.18
2022-10-25T11:34:09.827Z,46.69
2022-10-25T11:37:05.147Z,45.50
2022-10-25T11:39:48.725Z,45.06
2022-10-25T11:42:31.113Z,44.43
2022-10-25T11:45:13.249Z,45.29
2022-10-25T11:48:18.584Z,44.23
2022-10-25T11:50:59.413Z,43.85
2022-10-25T11:53:54.007Z,42.98
2022-10-25T11:56:41.174Z,40.79
2022-10-25T11:59:34.674Z,42.01
2022-10-25T12:02:21.513Z,40.38
2022-10-25T12:05:17.724Z,39.58
2022-10-25T12:07:53.206Z,39.75
2022-10-25T12:10:34.712Z,39.00
2022-10-25T12:13:24.905Z,39.59
2022-10-25T12:15:55.456Z,38.51
2022-10-25T12:18:40.201Z,37.48
2022-10-25T12:21:09.786Z,38.12
2022-10-25T12:23:50.261Z,36.39
2022-10-25T12:26:30.519Z,35.66
2022-10-25T12:29:02.040Z,36.34
2022-10-25T12:31:33.710Z,36.14
2022-10-25T12:34:21.244Z,34.85
2022-10-25T12:36:57.467Z,35.18
2022-10-25T12:39:39.722Z,33.19
2022-10-25T12:42:24.205Z,33.49
2022-10-25T12:45:03.536Z,33.71
2022-10-25T12:47:51.934Z,33.57
2022-10-25T12:50:52.690Z,32.22
2022-10-25T12:54:09.593Z,31.48
2022-10-25T12:57:15.869Z,31.42
2022-10-25T13:00:04.727Z,32.72
2022-10-25T13:02:54.055Z,31.63
2022-10-25T13:05:43.357Z,31.13
2022-10-25T13:08:13.036Z,31.82
2022-10-25T13:10:45.872Z,31.22
2022-10-25T13:13:18.906Z,30.51
2022-10-25T13:15:51.644Z,29.74
2022-10-25T13:18:43.416Z,28.74
2022-10-25T13:21:15.911Z,30.06
2022-10-25T13:23:43.012Z,29.59
2022-10-25T13:26:12.237Z,29.37
2022-10-25T13:28:48.121Z,29.16
2022-10-25T13:31:34.538Z,28.25
2022-10-25T13:34:13.854Z,27.89
2022-10-25T13:36:52.780Z,28.23
2022-10-25T13:39:28.687Z,28.66
2022-10-25T13:42:15.244Z,28.83
2022-10-25T13:44:56.463Z,28.92
2022-10-25T13:47:46.486Z,28.36
2022-10-25T13:50:23.502Z,30.15
2022-10-25T13:52:52.380Z,30.28
2022-10-25T13:55:22.852Z,30.33
2022-10-25T13:57:57.797Z,30.44
2022-10-25T14:00:27.790Z,30.39
2022-10-25T14:03:21.520Z,28.60
2022-10-25T14:05:54.732Z,30.79
2022-10-25T14:08:49.861Z,32.21
2022-10-25T14:11:27.304Z,33.13
2022-10-25T14:14:12.077Z,31.48
2022-10-25T14:17:11.006Z,32.18
2022-10-25T14:19:43.989Z,34.29
2022-10-25T14:22:40.479Z,33.62
2022-10-25T14:25:38.120Z,33.90
2022-10-25T14:28:06.068Z,34.05
2022-10-25T14:30:41.911Z,34.98
2022-10-25T14:33:24.632Z,35.41
2022-10-25T14:36:07.538Z,36.72
2022-10-25T14:41:50.962Z,38.47
2022-10-25T14:44:25.498Z,38.24
2022-10-25T14:46:53.767Z,38.94
2022-10-25T14:49:22.143Z,38.16
2022-10-25T14:51:53.336Z,37.61
2022-10-25T14:54:29.297Z,37.92
2022-10-25T14:57:07.566Z,38.58
2022-10-25T14:59:51.863Z,38.24
2022-10-25T15:02:26.191Z,38.58
2022-10-25T15:04:56.885Z,37.99
2022-10-25T15:07:32.744Z,38.66
2022-10-25T15:10:02.846Z,38.76
2022-10-25T15:12:31.749Z,39.00
2022-10-25T15:15:19.909Z,39.16
2022-10-25T15:17:51.801Z,39.43
2022-10-25T15:20:19.251Z,39.70
2022-10-25T15:22:49.658Z,40.30
2022-10-25T15:25:41.019Z,40.40
2022-10-25T15:28:16.471Z,40.53
2022-10-25T15:31:04.463Z,40.96
2022-10-25T15:33:32.421Z,41.18
2022-10-25T15:36:05.218Z,41.71
2022-10-25T15:39:05.478Z,42.71
2022-10-25T15:41:23.575Z,43.30
2022-10-25T15:43:51.765Z,43.38
2022-10-25T15:46:40.261Z,44.40
2022-10-25T15:49:08.590Z,44.66
2022-10-25T15:51:41.861Z,45.27
2022-10-25T15:54:16.561Z,45.69
2022-10-25T15:56:44.031Z,45.87
2022-10-25T15:59:11.357Z,46.79
2022-10-25T16:01:43.280Z,46.79
2022-10-25T16:04:15.609Z,46.90
2022-10-25T16:06:44.206Z,47.54
2022-10-25T16:09:11.670Z,47.68
2022-10-25T16:11:44.925Z,48.10
2022-10-25T16:14:27.365Z,49.34
2022-10-25T16:16:55.102Z,49.84
2022-10-25T16:19:22.147Z,50.50
2022-10-25T16:21:49.695Z,50.56
2022-10-25T16:24:16.611Z,50.68
2022-10-25T16:26:46.920Z,50.89
2022-10-25T16:29:19.030Z,51.24
2022-10-25T16:31:46.696Z,51.71
2022-10-25T16:34:17.376Z,52.37
2022-10-25T16:36:45.396Z,53.02
2022-10-25T16:39:13.438Z,53.53
2022-10-25T16:41:42.606Z,54.12
2022-10-25T16:44:19.557Z,55.37
2022-10-25T16:46:47.038Z,55.84
2022-10-25T16:49:14.114Z,56.26
2022-10-25T16:51:41.817Z,56.51
2022-10-25T16:54:10.370Z,56.10
2022-10-25T16:56:37.485Z,55.23
2022-10-25T16:59:04.436Z,55.48
2022-10-25T17:01:40.044Z,55.23
2022-10-25T17:04:10.799Z,55.29
2022-10-25T17:06:42.087Z,55.19
2022-10-25T17:09:11.278Z,55.13
2022-10-25T17:11:38.248Z,55.37
2022-10-25T17:14:05.777Z,55.80
2022-10-25T17:16:33.497Z,56.01
2022-10-25T17:19:00.660Z,56.58
2022-10-25T17:21:28.477Z,57.06
2022-10-25T17:23:56.421Z,57.21
2022-10-25T17:26:23.425Z,57.36
2022-10-25T17:28:50.411Z,57.18
2022-10-25T17:31:17.442Z,57.98
2022-10-25T17:33:44.692Z,59.42
2022-10-25T17:36:15.169Z,60.52
2022-10-25T17:38:42.513Z,60.78
2022-10-25T17:41:10.344Z,61.38
2022-10-25T17:43:39.050Z,61.58
2022-10-25T17:46:09.466Z,62.62
2022-10-25T17:48:38.796Z,63.23
2022-10-25T17:51:08.446Z,63.45
2022-10-25T17:53:35.739Z,63.44
2022-10-25T17:56:19.447Z,64.40
2022-10-25T17:58:48.843Z,63.97
2022-10-25T18:01:19.335Z,64.21
2022-10-25T18:03:47.808Z,64.44
2022-10-25T18:06:18.876Z,64.33
2022-10-25T18:08:52.032Z,64.40
2022-10-25T18:11:24.196Z,64.00
2022-10-25T18:13:57.554Z,63.24
2022-10-25T18:16:31.061Z,63.39
2022-10-25T18:19:05.054Z,63.06
2022-10-25T18:21:33.062Z,62.49
2022-10-25T18:24:02.806Z,62.40
2022-10-25T18:26:30.151Z,62.85
2022-10-25T18:28:58.503Z,63.32
2022-10-25T18:31:27.304Z,63.33
2022-10-25T18:34:04.094Z,64.34
2022-10-25T18:36:32.347Z,64.32
2022-10-25T18:38:59.511Z,64.21
2022-10-25T18:41:32.058Z,64.11
2022-10-25T18:43:59.898Z,64.04
2022-10-25T18:46:30.994Z,63.93
2022-10-25T18:48:58.023Z,63.99
2022-10-25T18:51:30.181Z,64.06
2022-10-25T18:53:59.364Z,64.25
2022-10-25T18:56:27.828Z,64.35
2022-10-25T18:58:57.296Z,64.98
2022-10-25T19:01:28.059Z,65.38
2022-10-25T19:04:01.945Z,64.76
2022-10-25T19:06:29.858Z,64.74
2022-10-25T19:08:56.870Z,64.77
2022-10-25T19:11:26.004Z,65.12
2022-10-25T19:13:54.828Z,65.60
2022-10-25T19:16:23.197Z,66.26
2022-10-25T19:18:51.045Z,66.70
2022-10-25T19:21:20.999Z,67.04
2022-10-25T19:23:48.197Z,67.09
2022-10-25T19:26:19.952Z,67.34
2022-10-25T19:28:47.683Z,67.46
2022-10-25T19:31:17.399Z,67.34
2022-10-25T19:33:46.494Z,67.52
2022-10-25T19:36:14.028Z,67.95
2022-10-25T19:38:41.563Z,68.31
2022-10-25T19:41:10.634Z,68.17
2022-10-25T19:43:37.987Z,68.36
2022-10-25T19:46:07.046Z,68.27
2022-10-25T19:48:35.677Z,68.38
2022-10-25T19:51:07.808Z,68.39
2022-10-25T19:53:35.855Z,68.36
2022-10-25T19:56:11.918Z,68.38
2022-10-25T19:58:39.969Z,68.76
2022-10-25T20:01:19.198Z,69.06
2022-10-25T20:03:50.158Z,69.35
2022-10-25T20:06:23.513Z,69.41
2022-10-25T20:08:54.330Z,69.27
2022-10-25T20:11:23.165Z,69.64
2022-10-25T20:13:58.900Z,69.61
2022-10-25T20:16:27.310Z,69.87
2022-10-25T20:18:54.678Z,70.04
2022-10-25T20:21:27.354Z,70.14
2022-10-25T20:23:57.392Z,69.64
2022-10-25T20:26:27.669Z,70.01
2022-10-25T20:28:56.645Z,70.25
2022-10-25T20:31:25.827Z,70.66
2022-10-25T20:33:53.268Z,70.65
2022-10-25T20:36:23.574Z,70.35
2022-10-25T20:38:52.289Z,70.05
2022-10-25T20:41:21.741Z,70.58
2022-10-25T20:43:51.159Z,70.38
2022-10-25T20:46:20.031Z,70.74
2022-10-25T20:48:47.424Z,70.98
2022-10-25T20:51:15.658Z,71.49
2022-10-25T20:53:44.550Z,70.19
2022-10-25T20:56:13.367Z,70.24
2022-10-25T20:58:40.427Z,70.26
2022-10-25T21:01:08.525Z,70.61
2022-10-25T21:03:35.765Z,70.22
2022-10-25T21:06:05.740Z,70.71
2022-10-25T21:08:33.254Z,70.92
2022-10-25T21:11:02.226Z,71.44
2022-10-25T21:13:34.814Z,71.49
2022-10-25T21:16:13.847Z,72.17
2022-10-25T21:18:41.584Z,71.87
2022-10-25T21:21:14.513Z,71.50
2022-10-25T21:23:41.655Z,71.92
2022-10-25T21:26:09.561Z,72.05
2022-10-25T21:28:41.462Z,71.88
2022-10-25T21:31:14.300Z,71.98
2022-10-25T21:33:49.736Z,72.02
2022-10-25T21:36:19.495Z,72.30
2022-10-25T21:38:46.742Z,72.40
2022-10-25T21:41:27.140Z,73.71
2022-10-25T21:43:55.135Z,73.61
2022-10-25T21:46:23.286Z,73.56
2022-10-25T21:48:51.103Z,73.62
2022-10-25T21:51:20.123Z,73.77
2022-10-25T21:53:48.107Z,73.58
2022-10-25T21:56:17.698Z,74.10
2022-10-25T21:58:47.002Z,73.88
2022-10-25T22:01:22.854Z,74.09
2022-10-25T22:03:50.366Z,73.99
2022-10-25T22:06:26.226Z,74.70
2022-10-25T22:08:55.509Z,74.38
2022-10-25T22:11:25.440Z,74.77
2022-10-25T22:14:00.425Z,74.45
2022-10-25T22:16:28.708Z,74.02
2022-10-25T22:19:01.012Z,74.00
2022-10-25T22:21:32.347Z,73.81
2022-10-25T22:23:59.744Z,73.66
2022-10-25T22:26:27.195Z,73.54
2022-10-25T22:28:56.845Z,73.49
2022-10-25T22:31:25.151Z,73.36
2022-10-25T22:33:54.824Z,73.02
2022-10-25T22:36:23.970Z,73.13
2022-10-25T22:38:51.380Z,73.14
2022-10-25T22:41:23.404Z,73.36
2022-10-25T22:43:51.136Z,73.51
2022-10-25T22:46:25.629Z,73.78
2022-10-25T22:48:54.984Z,74.22
2022-10-25T22:51:23.621Z,74.10
2022-10-25T22:53:51.079Z,74.44
2022-10-25T22:56:20.695Z,74.93
2022-10-25T22:58:52.806Z,75.65
2022-10-25T23:01:23.213Z,76.21
2022-10-25T23:03:54.608Z,76.83
2022-10-25T23:06:30.773Z,77.85
2022-10-25T23:09:00.096Z,77.48
2022-10-25T23:11:32.623Z,77.21
2022-10-25T23:14:00.804Z,77.42
2022-10-25T23:16:29.676Z,78.00
2022-10-25T23:18:57.255Z,77.77
2022-10-25T23:21:26.391Z,77.30
2022-10-25T23:23:54.412Z,77.04
2022-10-25T23:26:32.606Z,77.06
2022-10-25T23:29:00.568Z,76.57
2022-10-25T23:31:27.806Z,76.85
2022-10-25T23:33:57.484Z,76.94
2022-10-25T23:36:27.489Z,76.86
2022-10-25T23:38:55.674Z,76.55
2022-10-25T23:41:23.571Z,76.09
2022-10-25T23:43:50.911Z,75.89
2022-10-25T23:46:18.106Z,75.95
2022-10-25T23:48:45.251Z,76.73
2022-10-25T23:51:15.064Z,77.73
2022-10-25T23:53:42.530Z,77.53
2022-10-25T23:56:11.507Z,77.25
2022-10-25T23:58:38.827Z,77.01
